createdAt,value
2019-05-06T00:00:16.944Z,21.95
2019-05-06T00:02:18.538Z,21.99
2019-05-06T00:04:20.128Z,22.04
2019-05-06T00:06:23.648Z,22.02
2019-05-06T00:08:23.761Z,22.00
2019-05-06T00:10:25.057Z,21.97
2019-05-06T00:12:26.649Z,22.02
2019-05-06T00:14:28.226Z,22.01
2019-05-06T00:16:29.844Z,22.00
2019-05-06T00:18:33.940Z,21.99
2019-05-06T00:20:34.746Z,22.02
2019-05-06T00:22:34.738Z,22.00
2019-05-06T00:24:39.224Z,21.99
2019-05-06T00:26:47.577Z,21.74
2019-05-06T00:28:49.161Z,22.00
2019-05-06T00:30:50.772Z,21.98
2019-05-06T00:32:53.818Z,21.96
2019-05-06T00:34:54.623Z,21.95
2019-05-06T00:36:55.679Z,21.91
2019-05-06T00:38:57.320Z,21.89
2019-05-06T00:41:07.400Z,21.91
2019-05-06T00:43:08.988Z,21.91
2019-05-06T00:45:10.627Z,21.86
2019-05-06T00:47:13.556Z,21.86
2019-05-06T00:49:14.371Z,21.82
2019-05-06T00:51:15.704Z,21.76
2019-05-06T00:53:18.173Z,21.72
2019-05-06T00:55:19.784Z,21.71
2019-05-06T00:57:23.394Z,21.71
2019-05-06T00:59:23.855Z,21.90
2019-05-06T01:01:29.508Z,21.95
2019-05-06T01:03:26.312Z,21.92
2019-05-06T01:05:27.916Z,21.90
2019-05-06T01:07:29.519Z,21.89
2019-05-06T01:09:31.255Z,21.97
2019-05-06T01:11:34.596Z,21.95
2019-05-06T01:13:36.963Z,21.96
2019-05-06T01:15:38.707Z,21.96
2019-05-06T01:17:40.324Z,21.95
2019-05-06T01:19:41.941Z,21.94
2019-05-06T01:21:44.702Z,21.93
2019-05-06T01:23:45.176Z,21.95
2019-05-06T01:25:46.779Z,21.94
2019-05-06T01:27:48.425Z,21.97
2019-05-06T01:29:50.068Z,21.99
2019-05-06T01:31:54.225Z,21.97
2019-05-06T01:33:53.620Z,21.99
2019-05-06T01:35:55.019Z,21.99
2019-05-06T01:38:06.048Z,21.95
2019-05-06T01:40:08.478Z,21.91
2019-05-06T01:42:10.540Z,21.93
2019-05-06T01:44:13.657Z,21.94
2019-05-06T01:46:14.043Z,21.93
2019-05-06T01:48:15.506Z,21.93
2019-05-06T01:50:17.148Z,21.92
2019-05-06T01:52:18.766Z,21.96
2019-05-06T01:54:20.380Z,22.03
2019-05-06T01:56:23.965Z,22.08
2019-05-06T01:58:24.298Z,22.10
2019-05-06T02:00:25.272Z,22.11
2019-05-06T02:02:26.847Z,22.11
2019-05-06T02:04:28.448Z,22.13
2019-05-06T02:06:30.040Z,22.16
2019-05-06T02:08:33.578Z,22.17
2019-05-06T02:10:34.959Z,22.18
2019-05-06T02:12:34.975Z,22.17
2019-05-06T02:14:36.583Z,22.19
2019-05-06T02:16:38.364Z,22.20
2019-05-06T02:18:39.952Z,22.21
2019-05-06T02:20:41.551Z,22.23
2019-05-06T02:22:46.024Z,22.21
2019-05-06T02:24:50.288Z,22.20
2019-05-06T02:26:53.728Z,22.18
2019-05-06T02:28:54.526Z,22.15
2019-05-06T02:30:56.000Z,22.08
2019-05-06T02:32:58.186Z,22.03
2019-05-06T02:35:14.975Z,22.01
2019-05-06T02:37:16.458Z,22.00
2019-05-06T02:39:18.045Z,21.97
2019-05-06T02:41:23.052Z,22.04
2019-05-06T02:43:23.183Z,21.87
2019-05-06T02:45:23.948Z,21.79
2019-05-06T02:47:27.302Z,21.72
2019-05-06T02:49:33.069Z,21.66
2019-05-06T02:51:33.447Z,21.79
2019-05-06T02:53:34.744Z,21.92
2019-05-06T02:55:36.448Z,22.01
2019-05-06T02:57:38.029Z,21.94
2019-05-06T02:59:39.653Z,21.67
2019-05-06T03:01:43.275Z,21.60
2019-05-06T03:03:43.555Z,21.54
2019-05-06T03:05:44.602Z,21.51
2019-05-06T03:07:46.236Z,21.52
2019-05-06T03:09:47.932Z,21.58
2019-05-06T03:11:49.528Z,21.62
2019-05-06T03:13:53.702Z,21.70
2019-05-06T03:15:54.059Z,21.76
2019-05-06T03:17:55.425Z,21.85
2019-05-06T03:19:56.165Z,21.94
2019-05-06T03:22:06.727Z,21.99
2019-05-06T03:24:14.732Z,22.04
2019-05-06T03:26:15.896Z,22.09
2019-05-06T03:28:17.484Z,22.13
2019-05-06T03:30:19.119Z,22.16
2019-05-06T03:32:24.639Z,22.18
2019-05-06T03:34:48.894Z,22.19
2019-05-06T03:36:27.316Z,22.19
2019-05-06T03:38:25.916Z,22.16
2019-05-06T03:40:27.564Z,22.16
2019-05-06T03:42:29.171Z,22.14
2019-05-06T03:44:33.078Z,22.08
2019-05-06T03:46:33.615Z,22.02
2019-05-06T03:48:52.900Z,21.96
2019-05-06T03:50:55.675Z,21.90
2019-05-06T03:52:56.045Z,21.86
2019-05-06T03:54:54.860Z,21.80
2019-05-06T03:56:56.450Z,21.76
2019-05-06T03:58:58.069Z,21.71
2019-05-06T04:00:59.656Z,21.66
2019-05-06T04:03:05.177Z,21.60
2019-05-06T04:05:06.783Z,21.52
2019-05-06T04:07:08.375Z,21.37
2019-05-06T04:09:13.039Z,21.43
2019-05-06T04:11:13.597Z,21.38
2019-05-06T04:13:13.582Z,21.35
2019-05-06T04:15:15.100Z,21.35
2019-05-06T04:17:16.738Z,21.34
2019-05-06T04:19:34.095Z,21.32
2019-05-06T04:21:40.171Z,21.29
2019-05-06T04:23:43.665Z,21.28
2019-05-06T04:25:58.829Z,21.27
2019-05-06T04:28:02.931Z,21.28
2019-05-06T04:30:07.020Z,21.29
2019-05-06T04:32:08.629Z,21.37
2019-05-06T04:34:17.998Z,21.43
2019-05-06T04:36:13.157Z,21.51
2019-05-06T04:38:14.073Z,21.54
2019-05-06T04:40:15.205Z,21.65
2019-05-06T04:42:16.796Z,21.73
2019-05-06T04:44:18.409Z,21.84
2019-05-06T04:46:23.372Z,21.91
2019-05-06T04:48:23.828Z,21.98
2019-05-06T04:50:24.149Z,22.02
2019-05-06T04:52:26.098Z,22.07
2019-05-06T04:54:26.820Z,22.11
2019-05-06T04:56:28.323Z,22.15
2019-05-06T04:58:29.945Z,22.19
2019-05-06T05:00:33.071Z,22.20
2019-05-06T05:02:33.817Z,22.23
2019-05-06T05:04:36.917Z,22.19
2019-05-06T05:06:36.520Z,22.21
2019-05-06T05:08:38.150Z,22.23
2019-05-06T05:10:59.468Z,22.28
2019-05-06T05:13:06.030Z,22.27
2019-05-06T05:15:23.280Z,22.28
2019-05-06T05:17:42.556Z,22.26
2019-05-06T05:19:44.126Z,22.28
2019-05-06T05:21:45.709Z,22.27
2019-05-06T05:23:47.293Z,22.27
2019-05-06T05:25:48.876Z,22.26
2019-05-06T05:27:50.460Z,22.26
2019-05-06T05:29:52.302Z,22.27
2019-05-06T05:31:53.718Z,22.23
2019-05-06T05:33:55.302Z,22.17
2019-05-06T05:35:56.898Z,22.09
2019-05-06T05:37:58.486Z,22.04
2019-05-06T05:40:00.068Z,21.95
2019-05-06T05:42:02.994Z,21.91
2019-05-06T05:44:07.306Z,21.84
2019-05-06T05:46:08.916Z,21.79
2019-05-06T05:48:28.179Z,21.87
2019-05-06T05:50:32.340Z,21.92
2019-05-06T05:52:32.858Z,21.91
2019-05-06T05:54:33.596Z,21.92
2019-05-06T05:56:35.228Z,21.93
2019-05-06T05:58:36.816Z,21.66
2019-05-06T06:00:38.424Z,21.97
2019-05-06T06:02:43.431Z,21.98
2019-05-06T06:04:53.764Z,21.99
2019-05-06T06:06:43.400Z,22.01
2019-05-06T06:08:44.975Z,22.04
2019-05-06T06:10:46.615Z,22.07
2019-05-06T06:12:48.232Z,22.13
2019-05-06T06:14:52.533Z,22.18
2019-05-06T06:16:56.244Z,22.23
2019-05-06T06:19:15.563Z,22.26
2019-05-06T06:21:27.277Z,22.29
2019-05-06T06:23:24.494Z,22.29
2019-05-06T06:25:26.140Z,22.30
2019-05-06T06:27:27.746Z,22.25
2019-05-06T06:29:29.355Z,22.15
2019-05-06T06:31:33.610Z,21.79
2019-05-06T06:33:35.224Z,22.00
2019-05-06T06:35:37.693Z,21.93
2019-05-06T06:37:55.047Z,21.93
2019-05-06T06:39:56.640Z,22.00
2019-05-06T06:41:58.234Z,22.01
2019-05-06T06:44:02.272Z,22.09
2019-05-06T06:46:09.402Z,22.14
2019-05-06T06:48:09.563Z,22.18
2019-05-06T06:50:12.596Z,22.21
2019-05-06T06:52:14.899Z,22.23
2019-05-06T06:54:14.578Z,22.21
2019-05-06T06:56:18.857Z,22.21
2019-05-06T06:58:22.770Z,22.22
2019-05-06T07:00:26.624Z,22.21
2019-05-06T07:02:38.139Z,22.22
2019-05-06T07:04:43.103Z,22.23
2019-05-06T07:06:44.482Z,22.21
2019-05-06T07:08:46.062Z,22.21
2019-05-06T07:10:47.654Z,22.20
2019-05-06T07:12:49.265Z,22.20
2019-05-06T07:14:52.329Z,22.19
2019-05-06T07:16:53.321Z,22.18
2019-05-06T07:18:54.199Z,22.19
2019-05-06T07:21:06.428Z,22.17
2019-05-06T07:23:13.186Z,22.17
2019-05-06T07:25:14.808Z,22.18
2019-05-06T07:27:16.393Z,22.09
2019-05-06T07:29:23.351Z,22.09
2019-05-06T07:31:23.697Z,22.10
2019-05-06T07:33:22.954Z,22.17
2019-05-06T07:35:37.416Z,22.17
2019-05-06T07:37:24.760Z,22.21
2019-05-06T07:39:26.337Z,22.19
2019-05-06T07:41:36.178Z,22.15
2019-05-06T07:43:37.822Z,22.09
2019-05-06T07:45:42.345Z,22.05
2019-05-06T07:47:42.608Z,22.03
2019-05-06T07:49:43.544Z,22.00
2019-05-06T07:51:45.196Z,21.94
2019-05-06T07:53:46.789Z,21.91
2019-05-06T07:55:48.372Z,21.90
2019-05-06T07:57:52.191Z,21.89
2019-05-06T07:59:52.497Z,21.93
2019-05-06T08:01:54.070Z,21.92
2019-05-06T08:03:54.910Z,21.96
2019-05-06T08:05:58.827Z,21.95
2019-05-06T08:07:58.142Z,21.96
2019-05-06T08:10:01.939Z,22.10
2019-05-06T08:12:05.184Z,22.17
2019-05-06T08:14:06.758Z,22.24
2019-05-06T08:16:08.376Z,22.29
2019-05-06T08:18:09.982Z,22.33
2019-05-06T08:20:12.880Z,22.37
2019-05-06T08:22:13.826Z,22.42
2019-05-06T08:24:15.412Z,22.41
2019-05-06T08:26:18.004Z,22.43
2019-05-06T08:28:18.874Z,22.28
2019-05-06T08:30:22.893Z,22.37
2019-05-06T08:32:22.743Z,22.41
2019-05-06T08:34:23.884Z,22.43
2019-05-06T08:36:32.865Z,22.43
2019-05-06T08:38:32.756Z,22.45
2019-05-06T08:40:34.364Z,22.46
2019-05-06T08:42:35.984Z,22.45
2019-05-06T08:44:37.572Z,22.42
2019-05-06T08:46:39.209Z,22.38
2019-05-06T08:48:42.797Z,22.32
2019-05-06T08:50:43.133Z,22.30
2019-05-06T08:52:52.374Z,22.29
2019-05-06T08:54:52.650Z,22.33
2019-05-06T08:56:53.700Z,22.33
2019-05-06T08:58:55.451Z,22.32
2019-05-06T09:01:12.657Z,22.21
2019-05-06T09:03:14.456Z,22.27
2019-05-06T09:05:15.981Z,22.29
2019-05-06T09:07:17.588Z,22.29
2019-05-06T09:09:19.236Z,22.24
2019-05-06T09:11:23.688Z,22.13
2019-05-06T09:13:23.218Z,22.16
2019-05-06T09:15:24.216Z,22.10
2019-05-06T09:17:25.845Z,22.02
2019-05-06T09:19:27.419Z,22.06
2019-05-06T09:21:28.991Z,22.09
2019-05-06T09:23:32.397Z,22.03
2019-05-06T09:25:32.405Z,21.99
2019-05-06T09:27:39.592Z,22.06
2019-05-06T09:29:44.992Z,22.02
2019-05-06T09:31:47.436Z,22.00
2019-05-06T09:33:50.481Z,21.94
2019-05-06T09:35:52.874Z,21.96
2019-05-06T09:37:53.726Z,21.99
2019-05-06T09:39:55.380Z,22.02
2019-05-06T09:41:58.029Z,22.02
2019-05-06T09:43:58.684Z,22.01
2019-05-06T09:46:02.341Z,22.00
2019-05-06T09:48:12.646Z,21.99
2019-05-06T09:50:12.698Z,22.01
2019-05-06T09:52:13.927Z,22.06
2019-05-06T09:54:15.516Z,22.08
2019-05-06T09:56:18.644Z,22.12
2019-05-06T09:58:22.721Z,22.15
2019-05-06T10:00:23.526Z,22.16
2019-05-06T10:02:23.554Z,21.75
2019-05-06T10:04:25.126Z,22.17
2019-05-06T10:06:26.763Z,22.18
2019-05-06T10:08:28.376Z,22.17
2019-05-06T10:10:29.988Z,22.16
2019-05-06T10:12:32.907Z,22.23
2019-05-06T10:14:33.212Z,22.28
2019-05-06T10:16:34.846Z,22.25
2019-05-06T10:18:36.458Z,22.21
2019-05-06T10:20:38.048Z,22.15
2019-05-06T10:22:39.657Z,22.11
2019-05-06T10:24:43.230Z,22.08
2019-05-06T10:26:43.575Z,22.05
2019-05-06T10:28:46.644Z,22.02
2019-05-06T10:30:48.297Z,21.98
2019-05-06T10:32:49.893Z,21.98
2019-05-06T10:34:52.611Z,22.02
2019-05-06T10:36:53.378Z,22.04
2019-05-06T10:38:54.868Z,22.01
2019-05-06T10:41:03.511Z,21.95
2019-05-06T10:42:58.105Z,21.89
2019-05-06T10:45:01.680Z,21.88
2019-05-06T10:47:06.328Z,21.85
2019-05-06T10:49:07.926Z,21.78
2019-05-06T10:51:25.266Z,21.78
2019-05-06T10:53:26.879Z,21.77
2019-05-06T10:55:28.491Z,21.74
2019-05-06T10:57:32.842Z,21.71
2019-05-06T10:59:33.314Z,21.70
2019-05-06T11:01:38.772Z,21.70
2019-05-06T11:03:42.001Z,21.70
2019-05-06T11:05:43.173Z,21.71
2019-05-06T11:07:43.763Z,21.72
2019-05-06T11:09:45.364Z,21.73
2019-05-06T11:11:46.966Z,21.77
2019-05-06T11:13:48.596Z,21.81
2019-05-06T11:15:52.847Z,21.88
2019-05-06T11:17:51.816Z,21.99
2019-05-06T11:19:53.469Z,22.09
2019-05-06T11:21:55.043Z,22.12
2019-05-06T11:23:56.688Z,22.15
2019-05-06T11:25:58.296Z,22.18
2019-05-06T11:27:59.920Z,22.18
2019-05-06T11:30:07.246Z,22.18
2019-05-06T11:32:14.530Z,22.17
2019-05-06T11:34:23.644Z,22.18
2019-05-06T11:36:40.132Z,22.20
2019-05-06T11:38:43.189Z,22.17
2019-05-06T11:40:43.370Z,22.14
2019-05-06T11:42:44.977Z,22.17
2019-05-06T11:44:46.609Z,22.27
2019-05-06T11:46:48.241Z,22.24
2019-05-06T11:48:52.110Z,22.22
2019-05-06T11:50:51.487Z,22.20
2019-05-06T11:52:55.833Z,22.14
2019-05-06T11:54:54.760Z,22.09
2019-05-06T11:56:58.564Z,22.06
2019-05-06T11:58:58.112Z,22.01
2019-05-06T12:01:02.566Z,22.01
2019-05-06T12:03:06.394Z,21.97
2019-05-06T12:05:08.051Z,21.96
2019-05-06T12:07:12.283Z,21.92
2019-05-06T12:09:16.381Z,21.90
2019-05-06T12:11:13.091Z,21.87
2019-05-06T12:13:14.685Z,21.83
2019-05-06T12:15:16.280Z,21.80
2019-05-06T12:17:17.945Z,21.78
2019-05-06T12:19:19.547Z,21.79
2019-05-06T12:21:23.191Z,21.74
2019-05-06T12:23:22.864Z,21.75
2019-05-06T12:25:24.484Z,21.76
2019-05-06T12:27:32.724Z,21.75
2019-05-06T12:29:33.419Z,21.76
2019-05-06T12:31:35.047Z,21.75
2019-05-06T12:33:38.064Z,21.78
2019-05-06T12:35:39.676Z,21.80
2019-05-06T12:37:43.841Z,21.81
2019-05-06T12:39:43.220Z,21.91
2019-05-06T12:41:47.049Z,21.95
2019-05-06T12:43:48.704Z,22.08
2019-05-06T12:45:53.013Z,22.15
2019-05-06T12:47:53.358Z,22.09
2019-05-06T12:49:54.201Z,22.04
2019-05-06T12:51:55.840Z,22.02
2019-05-06T12:53:57.456Z,22.02
2019-05-06T12:55:59.139Z,22.02
2019-05-06T12:58:02.790Z,22.00
2019-05-06T13:00:09.220Z,21.95
2019-05-06T13:02:12.964Z,21.81
2019-05-06T13:04:13.551Z,21.79
2019-05-06T13:06:14.352Z,21.76
2019-05-06T13:08:19.914Z,21.73
2019-05-06T13:10:17.781Z,21.71
2019-05-06T13:12:19.387Z,21.84
2019-05-06T13:14:22.434Z,21.87
2019-05-06T13:16:22.948Z,21.89
2019-05-06T13:18:24.495Z,21.88
2019-05-06T13:20:26.104Z,21.89
2019-05-06T13:22:33.968Z,21.93
2019-05-06T13:24:34.958Z,21.94
2019-05-06T13:26:36.572Z,21.98
2019-05-06T13:28:38.224Z,22.04
2019-05-06T13:30:39.853Z,22.16
2019-05-06T13:32:43.349Z,22.13
2019-05-06T13:34:45.348Z,22.16
2019-05-06T13:36:46.979Z,22.17
2019-05-06T13:38:48.594Z,22.20
2019-05-06T13:40:54.939Z,22.24
2019-05-06T13:42:57.514Z,22.28
2019-05-06T13:44:59.148Z,22.32
2019-05-06T13:47:02.899Z,22.34
2019-05-06T13:49:22.702Z,22.33
2019-05-06T13:51:26.121Z,22.34
2019-05-06T13:53:39.309Z,22.32
2019-05-06T13:55:29.399Z,22.25
2019-05-06T13:57:32.062Z,22.32
2019-05-06T13:59:35.157Z,22.28
2019-05-06T14:01:34.385Z,22.27
2019-05-06T14:03:36.034Z,22.24
2019-05-06T14:05:37.620Z,22.23
2019-05-06T14:07:39.300Z,22.22
2019-05-06T14:09:43.481Z,22.19
2019-05-06T14:11:42.688Z,22.17
2019-05-06T14:13:44.305Z,22.17
2019-05-06T14:15:45.947Z,22.16
2019-05-06T14:17:47.724Z,22.13
2019-05-06T14:19:49.315Z,22.12
2019-05-06T14:21:52.298Z,22.11
2019-05-06T14:23:52.573Z,22.10
2019-05-06T14:26:09.064Z,22.08
2019-05-06T14:28:16.192Z,22.07
2019-05-06T14:30:18.271Z,22.06
2019-05-06T14:32:19.860Z,22.08
2019-05-06T14:34:22.979Z,22.06
2019-05-06T14:36:23.163Z,22.06
2019-05-06T14:38:24.878Z,22.06
2019-05-06T14:40:26.457Z,22.04
2019-05-06T14:42:28.044Z,22.03
2019-05-06T14:44:29.660Z,22.04
2019-05-06T14:46:33.133Z,22.01
2019-05-06T14:48:33.206Z,22.00
2019-05-06T14:50:45.121Z,21.99
2019-05-06T14:52:36.302Z,22.07
2019-05-06T14:54:43.527Z,22.12
2019-05-06T14:56:46.600Z,22.09
2019-05-06T14:58:54.040Z,22.06
2019-05-06T15:00:55.768Z,22.07
2019-05-06T15:02:57.387Z,22.06
2019-05-06T15:04:58.987Z,22.08
2019-05-06T15:07:02.126Z,22.08
2019-05-06T15:09:06.608Z,22.29
2019-05-06T15:11:08.218Z,22.43
2019-05-06T15:13:09.808Z,22.51
2019-05-06T15:15:12.186Z,22.51
2019-05-06T15:17:14.379Z,22.76
2019-05-06T15:19:14.768Z,22.98
2019-05-06T15:21:33.788Z,23.20
2019-05-06T15:23:18.181Z,23.32
2019-05-06T15:25:22.070Z,23.36
2019-05-06T15:27:22.732Z,23.48
2019-05-06T15:29:23.822Z,23.39
2019-05-06T15:31:27.479Z,23.31
2019-05-06T15:33:29.684Z,23.21
2019-05-06T15:35:37.363Z,23.26
2019-05-06T15:37:42.251Z,22.95
2019-05-06T15:39:43.616Z,22.66
2019-05-06T15:41:43.260Z,22.60
2019-05-06T15:43:44.886Z,22.59
2019-05-06T15:45:46.497Z,22.84
2019-05-06T15:47:48.376Z,23.01
2019-05-06T15:49:50.064Z,23.14
2019-05-06T15:51:52.267Z,23.29
2019-05-06T15:53:53.380Z,23.27
2019-05-06T15:55:54.996Z,23.28
2019-05-06T15:57:56.585Z,23.36
2019-05-06T15:59:58.209Z,23.31
2019-05-06T16:02:01.860Z,23.22
2019-05-06T16:04:06.505Z,23.03
2019-05-06T16:06:08.114Z,23.13
2019-05-06T16:08:09.724Z,23.17
2019-05-06T16:10:13.265Z,23.28
2019-05-06T16:12:13.001Z,22.98
2019-05-06T16:14:14.644Z,22.62
2019-05-06T16:16:16.254Z,22.61
2019-05-06T16:18:17.846Z,22.82
2019-05-06T16:20:19.468Z,22.99
2019-05-06T16:22:22.601Z,22.97
2019-05-06T16:24:39.274Z,22.93
2019-05-06T16:26:42.495Z,22.92
2019-05-06T16:28:45.033Z,22.86
2019-05-06T16:30:44.160Z,22.82
2019-05-06T16:32:45.758Z,22.83
2019-05-06T16:34:47.429Z,22.83
2019-05-06T16:36:49.084Z,22.90
2019-05-06T16:38:52.539Z,22.79
2019-05-06T16:41:02.185Z,22.78
2019-05-06T16:42:54.637Z,22.77
2019-05-06T16:44:55.630Z,22.79
2019-05-06T16:46:57.296Z,22.82
2019-05-06T16:48:58.874Z,22.80
2019-05-06T16:51:04.589Z,22.86
2019-05-06T16:53:05.683Z,22.69
2019-05-06T16:55:07.273Z,22.77
2019-05-06T16:57:13.508Z,22.91
2019-05-06T16:59:13.213Z,22.96
2019-05-06T17:01:15.252Z,23.06
2019-05-06T17:03:16.484Z,23.12
2019-05-06T17:05:33.852Z,23.19
2019-05-06T17:07:35.429Z,23.26
2019-05-06T17:09:37.071Z,23.27
2019-05-06T17:11:38.707Z,23.26
2019-05-06T17:13:40.296Z,23.32
2019-05-06T17:15:41.880Z,23.29
2019-05-06T17:17:46.824Z,23.26
2019-05-06T17:19:45.139Z,23.26
2019-05-06T17:21:48.453Z,23.26
2019-05-06T17:23:48.757Z,23.26
2019-05-06T17:25:52.093Z,23.25
2019-05-06T17:27:52.701Z,23.26
2019-05-06T17:29:54.450Z,23.25
2019-05-06T17:31:59.000Z,23.21
2019-05-06T17:34:06.864Z,23.19
2019-05-06T17:36:08.458Z,22.91
2019-05-06T17:38:10.164Z,22.64
2019-05-06T17:40:14.128Z,22.70
2019-05-06T17:42:14.063Z,22.84
2019-05-06T17:44:15.091Z,23.02
2019-05-06T17:46:17.396Z,23.07
2019-05-06T17:48:27.527Z,23.07
2019-05-06T17:50:26.230Z,23.05
2019-05-06T17:52:27.812Z,23.01
2019-05-06T17:54:29.401Z,23.00
2019-05-06T17:56:31.087Z,22.90
2019-05-06T17:58:33.235Z,22.79
2019-05-06T18:00:34.336Z,22.86
2019-05-06T18:02:35.932Z,22.88
2019-05-06T18:04:37.545Z,23.13
2019-05-06T18:06:39.166Z,23.21
2019-05-06T18:08:43.001Z,23.18
2019-05-06T18:10:42.759Z,23.22
2019-05-06T18:12:44.176Z,23.09
2019-05-06T18:14:46.530Z,22.99
2019-05-06T18:16:48.145Z,22.97
2019-05-06T18:18:52.154Z,23.00
2019-05-06T18:20:52.858Z,22.92
2019-05-06T18:22:53.172Z,23.00
2019-05-06T18:24:54.760Z,23.02
2019-05-06T18:26:56.396Z,23.25
2019-05-06T18:28:58.512Z,23.31
2019-05-06T18:30:59.654Z,23.30
2019-05-06T18:33:06.180Z,23.30
2019-05-06T18:35:07.766Z,23.19
2019-05-06T18:37:09.370Z,23.16
2019-05-06T18:39:12.626Z,23.31
2019-05-06T18:41:12.648Z,23.34
2019-05-06T18:43:14.712Z,23.34
2019-05-06T18:45:16.320Z,23.37
2019-05-06T18:47:17.908Z,23.38
2019-05-06T18:49:19.547Z,23.40
2019-05-06T18:51:22.414Z,23.46
2019-05-06T18:53:22.862Z,23.48
2019-05-06T18:55:24.472Z,23.48
2019-05-06T18:57:26.100Z,23.47
2019-05-06T18:59:27.796Z,23.36
2019-05-06T19:01:29.453Z,23.23
2019-05-06T19:03:31.972Z,22.83
2019-05-06T19:05:33.668Z,22.95
2019-05-06T19:07:35.275Z,22.93
2019-05-06T19:09:54.585Z,22.92
2019-05-06T19:11:56.307Z,22.97
2019-05-06T19:13:57.894Z,22.99
2019-05-06T19:15:59.476Z,22.94
2019-05-06T19:18:07.233Z,22.90
2019-05-06T19:20:09.417Z,22.84
2019-05-06T19:22:13.760Z,22.82
2019-05-06T19:24:12.700Z,22.78
2019-05-06T19:26:14.370Z,22.75
2019-05-06T19:28:16.739Z,22.78
2019-05-06T19:30:18.353Z,22.75
2019-05-06T19:32:22.566Z,22.70
2019-05-06T19:34:23.586Z,22.65
2019-05-06T19:36:24.143Z,22.62
2019-05-06T19:38:25.763Z,22.56
2019-05-06T19:40:27.344Z,22.52
2019-05-06T19:42:42.757Z,22.49
2019-05-06T19:44:30.708Z,22.27
2019-05-06T19:46:32.703Z,22.10
2019-05-06T19:48:33.968Z,22.00
2019-05-06T19:50:36.853Z,22.18
2019-05-06T19:52:37.272Z,22.04
2019-05-06T19:54:38.883Z,22.00
2019-05-06T19:56:42.295Z,21.97
2019-05-06T19:58:42.907Z,22.22
2019-05-06T20:00:44.002Z,22.46
2019-05-06T20:02:45.571Z,22.65
2019-05-06T20:04:47.180Z,22.83
2019-05-06T20:07:03.700Z,23.00
2019-05-06T20:09:22.084Z,23.28
2019-05-06T20:11:25.774Z,23.36
2019-05-06T20:13:27.369Z,23.40
2019-05-06T20:15:32.370Z,23.41
2019-05-06T20:17:34.002Z,23.40
2019-05-06T20:19:35.627Z,23.37
2019-05-06T20:21:37.228Z,23.33
2019-05-06T20:23:38.818Z,23.20
2019-05-06T20:25:44.408Z,22.97
2019-05-06T20:27:42.155Z,22.81
2019-05-06T20:29:43.767Z,22.72
2019-05-06T20:31:45.367Z,22.64
2019-05-06T20:33:47.017Z,22.59
2019-05-06T20:35:48.608Z,22.59
2019-05-06T20:37:50.184Z,22.61
2019-05-06T20:39:51.827Z,22.45
2019-05-06T20:41:53.431Z,22.47
2019-05-06T20:43:55.039Z,22.49
2019-05-06T20:45:56.622Z,22.49
2019-05-06T20:47:58.213Z,22.42
2019-05-06T20:50:02.235Z,22.28
2019-05-06T20:52:01.482Z,22.16
2019-05-06T20:54:03.092Z,22.06
2019-05-06T20:56:04.727Z,21.73
2019-05-06T20:58:06.335Z,21.92
2019-05-06T21:00:07.988Z,21.87
2019-05-06T21:02:09.612Z,21.81
2019-05-06T21:04:13.072Z,21.77
2019-05-06T21:06:13.293Z,21.73
2019-05-06T21:08:14.516Z,21.69
2019-05-06T21:10:16.104Z,21.65
2019-05-06T21:12:17.726Z,21.62
2019-05-06T21:14:19.387Z,21.59
2019-05-06T21:16:22.519Z,21.59
2019-05-06T21:18:23.012Z,21.62
2019-05-06T21:20:24.363Z,21.64
2019-05-06T21:22:26.080Z,21.69
2019-05-06T21:24:27.751Z,21.76
2019-05-06T21:26:29.326Z,21.77
2019-05-06T21:28:30.931Z,21.75
2019-05-06T21:30:32.586Z,21.79
2019-05-06T21:32:34.187Z,21.81
2019-05-06T21:34:35.776Z,21.88
2019-05-06T21:36:37.375Z,21.93
2019-05-06T21:38:38.988Z,21.94
2019-05-06T21:40:40.586Z,21.98
2019-05-06T21:42:43.134Z,22.02
2019-05-06T21:44:43.954Z,22.05
2019-05-06T21:46:45.526Z,22.09
2019-05-06T21:48:47.132Z,22.11
2019-05-06T21:50:48.728Z,22.16
2019-05-06T21:52:50.368Z,22.18
2019-05-06T21:54:52.573Z,22.21
2019-05-06T21:56:53.616Z,22.22
2019-05-06T21:58:55.238Z,22.20
2019-05-06T22:00:57.290Z,22.19
2019-05-06T22:02:58.933Z,22.18
2019-05-06T22:05:02.779Z,22.16
2019-05-06T22:07:03.016Z,22.14
2019-05-06T22:09:03.814Z,22.14
2019-05-06T22:11:05.399Z,22.00
2019-05-06T22:13:07.017Z,22.07
2019-05-06T22:15:08.614Z,22.05
2019-05-06T22:17:10.228Z,22.04
2019-05-06T22:19:12.216Z,22.02
2019-05-06T22:21:23.992Z,22.00
2019-05-06T22:23:25.625Z,22.00
2019-05-06T22:25:27.222Z,21.97
2019-05-06T22:27:28.812Z,21.67
2019-05-06T22:29:30.396Z,21.92
2019-05-06T22:31:33.094Z,21.91
2019-05-06T22:33:33.613Z,21.89
2019-05-06T22:35:35.200Z,21.88
2019-05-06T22:37:36.808Z,21.87
2019-05-06T22:39:38.411Z,21.85
2019-05-06T22:41:40.031Z,21.82
2019-05-06T22:43:42.361Z,21.84
2019-05-06T22:45:43.313Z,21.86
2019-05-06T22:47:44.913Z,21.92
2019-05-06T22:49:46.523Z,21.89
2019-05-06T22:51:48.102Z,21.89
2019-05-06T22:53:49.694Z,21.88
2019-05-06T22:55:51.322Z,21.89
2019-05-06T22:57:53.020Z,21.87
2019-05-06T22:59:54.629Z,21.89
2019-05-06T23:02:13.024Z,21.87
2019-05-06T23:04:12.751Z,21.87
2019-05-06T23:06:14.384Z,21.87
2019-05-06T23:08:15.977Z,21.89
2019-05-06T23:10:17.592Z,21.90
2019-05-06T23:12:19.195Z,21.92
2019-05-06T23:14:30.660Z,21.93
2019-05-06T23:16:22.525Z,21.93
2019-05-06T23:18:24.352Z,21.92
2019-05-06T23:20:25.764Z,21.91
2019-05-06T23:22:27.384Z,21.96
2019-05-06T23:24:29.002Z,22.11
2019-05-06T23:26:30.693Z,22.00
2019-05-06T23:28:32.308Z,21.91
2019-05-06T23:30:33.892Z,21.92
2019-05-06T23:32:35.560Z,21.89
2019-05-06T23:34:37.148Z,22.07
2019-05-06T23:36:38.759Z,22.09
2019-05-06T23:38:40.348Z,22.10
2019-05-06T23:40:42.775Z,22.13
2019-05-06T23:42:43.660Z,22.13
2019-05-06T23:44:46.288Z,22.12
2019-05-06T23:46:46.895Z,22.11
2019-05-06T23:48:48.489Z,22.14
2019-05-06T23:50:50.072Z,22.09
2019-05-06T23:52:52.027Z,22.11
2019-05-06T23:54:53.328Z,22.12
2019-05-06T23:56:54.978Z,22.09
2019-05-06T23:58:56.613Z,22.09
